Terminal Aerodrome Forecast
Issued by NWS

Home | Current Version | Previous Version | Text Only | Print | Product List | Glossary On
Versions: 1 2 3 4 5 6 7 8 9 10 11 12 13 14 15
000
FTUS42 KMLB 021739
TAFTIX
TAF
KTIX 021739Z 0218/0318 17006KT P6SM VCTS SCT030CB BKN050 OVC200
      TEMPO 0218/0220 3SM TSRA BKN020CB OVC040
     FM022000 19005KT P6SM VCTS SCT025CB OVC050
      TEMPO 0220/0222 VRB15G25KT 2SM TSRA BKN015CB OVC030
     FM030000 20003KT P6SM VCSH SCT020 BKN050 OVC120
     FM030300 00000KT P6SM SCT030 OVC060=

USA.gov is the U.S. government's official web portal to all federal, state and local government web resources and services.